sensor_id;sensor_type;location;lat;lon;timestamp;pressure;altitude;pressure_sealevel;temperature;humidity
21203;BME280;10759;51.982;9.232;2022-11-21T00:01:17;99151.88;;;0.23;100.00
21203;BME280;10759;51.982;9.232;2022-11-21T00:03:45;99028.22;;;-0.44;100.00
21203;BME280;10759;51.982;9.232;2022-11-21T00:06:14;99153.22;;;0.47;100.00
21203;BME280;10759;51.982;9.232;2022-11-21T00:08:42;99156.78;;;0.44;100.00
21203;BME280;10759;51.982;9.232;2022-11-21T00:11:11;99138.44;;;0.39;100.00
21203;BME280;10759;51.982;9.232;2022-11-21T00:13:39;99154.09;;;0.47;100.00
21203;BME280;10759;51.982;9.232;2022-11-21T00:16:09;99081.72;;;0.14;100.00
21203;BME280;10759;51.982;9.232;2022-11-21T00:18:39;99109.38;;;0.42;100.00
21203;BME280;10759;51.982;9.232;2022-11-21T00:21:09;99149.50;;;0.58;100.00
21203;BME280;10759;51.982;9.232;2022-11-21T00:23:38;99078.28;;;0.10;100.00
21203;BME280;10759;51.982;9.232;2022-11-21T00:26:07;99144.28;;;0.03;100.00
21203;BME280;10759;51.982;9.232;2022-11-21T00:28:36;99143.91;;;0.27;100.00
21203;BME280;10759;51.982;9.232;2022-11-21T00:31:04;99146.53;;;0.26;100.00
21203;BME280;10759;51.982;9.232;2022-11-21T00:33:33;99079.53;;;-0.14;100.00
21203;BME280;10759;51.982;9.232;2022-11-21T00:36:07;99126.97;;;0.40;100.00
21203;BME280;10759;51.982;9.232;2022-11-21T00:38:36;99146.44;;;0.32;100.00
21203;BME280;10759;51.982;9.232;2022-11-21T00:41:04;99073.25;;;-0.05;100.00
21203;BME280;10759;51.982;9.232;2022-11-21T00:43:33;99158.69;;;0.36;100.00
21203;BME280;10759;51.982;9.232;2022-11-21T00:46:01;99148.13;;;0.36;100.00
21203;BME280;10759;51.982;9.232;2022-11-21T00:48:30;99160.38;;;0.40;100.00
21203;BME280;10759;51.982;9.232;2022-11-21T00:50:59;99149.63;;;-0.05;100.00
21203;BME280;10759;51.982;9.232;2022-11-21T00:53:28;99158.13;;;0.14;100.00
21203;BME280;10759;51.982;9.232;2022-11-21T00:55:57;99122.16;;;0.11;100.00
21203;BME280;10759;51.982;9.232;2022-11-21T00:58:25;99153.00;;;0.60;100.00
21203;BME280;10759;51.982;9.232;2022-11-21T01:01:01;99104.41;;;0.24;100.00
21203;BME280;10759;51.982;9.232;2022-11-21T01:03:31;99149.56;;;0.55;100.00
21203;BME280;10759;51.982;9.232;2022-11-21T01:06:02;99172.25;;;0.66;100.00
21203;BME280;10759;51.982;9.232;2022-11-21T01:08:34;99174.94;;;0.62;100.00
21203;BME280;10759;51.982;9.232;2022-11-21T01:11:03;99174.78;;;0.72;100.00
21203;BME280;10759;51.982;9.232;2022-11-21T01:13:31;99167.13;;;0.56;100.00
21203;BME280;10759;51.982;9.232;2022-11-21T01:16:02;99167.19;;;0.53;100.00
21203;BME280;10759;51.982;9.232;2022-11-21T01:18:30;99163.88;;;0.39;100.00
21203;BME280;10759;51.982;9.232;2022-11-21T01:20:59;99145.69;;;0.25;100.00
21203;BME280;10759;51.982;9.232;2022-11-21T01:23:28;99162.59;;;0.10;100.00
21203;BME280;10759;51.982;9.232;2022-11-21T01:26:01;99117.88;;;0.04;100.00
21203;BME280;10759;51.982;9.232;2022-11-21T01:28:30;99176.06;;;0.46;100.00
21203;BME280;10759;51.982;9.232;2022-11-21T01:31:05;99173.38;;;0.49;100.00
21203;BME280;10759;51.982;9.232;2022-11-21T01:33:34;99168.25;;;0.41;100.00
21203;BME280;10759;51.982;9.232;2022-11-21T01:36:07;99070.06;;;-0.26;100.00
21203;BME280;10759;51.982;9.232;2022-11-21T01:38:37;99136.25;;;0.10;100.00
21203;BME280;10759;51.982;9.232;2022-11-21T01:41:07;99153.59;;;0.25;100.00
21203;BME280;10759;51.982;9.232;2022-11-21T01:43:35;99171.03;;;0.32;100.00
21203;BME280;10759;51.982;9.232;2022-11-21T01:46:10;99045.66;;;-0.37;100.00
21203;BME280;10759;51.982;9.232;2022-11-21T01:48:43;99171.72;;;0.43;100.00
21203;BME280;10759;51.982;9.232;2022-11-21T01:51:17;99110.00;;;0.04;100.00
21203;BME280;10759;51.982;9.232;2022-11-21T01:53:51;99143.06;;;0.24;100.00
21203;BME280;10759;51.982;9.232;2022-11-21T01:56:23;99176.00;;;0.51;100.00
21203;BME280;10759;51.982;9.232;2022-11-21T01:58:53;99136.91;;;0.23;100.00
21203;BME280;10759;51.982;9.232;2022-11-21T02:01:23;99167.31;;;0.44;100.00
21203;BME280;10759;51.982;9.232;2022-11-21T02:03:52;99194.56;;;0.45;100.00
21203;BME280;10759;51.982;9.232;2022-11-21T02:06:22;99081.38;;;-0.19;100.00
21203;BME280;10759;51.982;9.232;2022-11-21T02:08:51;99142.91;;;0.33;100.00
21203;BME280;10759;51.982;9.232;2022-11-21T02:11:26;99184.63;;;0.60;100.00
21203;BME280;10759;51.982;9.232;2022-11-21T02:13:56;99170.84;;;0.45;100.00
21203;BME280;10759;51.982;9.232;2022-11-21T02:16:26;99187.59;;;0.39;100.00
21203;BME280;10759;51.982;9.232;2022-11-21T02:18:55;99187.72;;;0.31;100.00
21203;BME280;10759;51.982;9.232;2022-11-21T02:21:33;99177.09;;;0.37;100.00
21203;BME280;10759;51.982;9.232;2022-11-21T02:24:13;99160.50;;;0.31;100.00
21203;BME280;10759;51.982;9.232;2022-11-21T02:26:45;99190.91;;;0.53;100.00
21203;BME280;10759;51.982;9.232;2022-11-21T02:29:15;99190.97;;;0.49;100.00
21203;BME280;10759;51.982;9.232;2022-11-21T02:31:43;99197.88;;;0.56;100.00
21203;BME280;10759;51.982;9.232;2022-11-21T02:34:12;99196.09;;;0.59;100.00
21203;BME280;10759;51.982;9.232;2022-11-21T02:36:42;99200.50;;;0.57;100.00
21203;BME280;10759;51.982;9.232;2022-11-21T02:39:15;99190.75;;;0.62;100.00
21203;BME280;10759;51.982;9.232;2022-11-21T02:41:53;99190.78;;;0.61;100.00
21203;BME280;10759;51.982;9.232;2022-11-21T02:44:28;99154.38;;;0.30;100.00
21203;BME280;10759;51.982;9.232;2022-11-21T02:46:58;99166.50;;;0.42;100.00
21203;BME280;10759;51.982;9.232;2022-11-21T02:49:30;99200.56;;;0.54;100.00
21203;BME280;10759;51.982;9.232;2022-11-21T02:52:02;99193.53;;;0.53;100.00
21203;BME280;10759;51.982;9.232;2022-11-21T02:54:30;99195.31;;;0.51;100.00
21203;BME280;10759;51.982;9.232;2022-11-21T02:57:00;99197.22;;;0.41;100.00
21203;BME280;10759;51.982;9.232;2022-11-21T02:59:28;99202.44;;;0.46;100.00
21203;BME280;10759;51.982;9.232;2022-11-21T03:01:56;99206.03;;;0.42;100.00
21203;BME280;10759;51.982;9.232;2022-11-21T03:04:25;99160.75;;;0.14;100.00
21203;BME280;10759;51.982;9.232;2022-11-21T03:06:55;99205.25;;;0.34;100.00
21203;BME280;10759;51.982;9.232;2022-11-21T03:09:23;99207.81;;;0.40;100.00
21203;BME280;10759;51.982;9.232;2022-11-21T03:11:51;99206.16;;;0.33;100.00
21203;BME280;10759;51.982;9.232;2022-11-21T03:14:20;99192.28;;;0.21;100.00
21203;BME280;10759;51.982;9.232;2022-11-21T03:16:48;99204.41;;;0.32;100.00
21203;BME280;10759;51.982;9.232;2022-11-21T03:19:16;99208.69;;;0.40;100.00
21203;BME280;10759;51.982;9.232;2022-11-21T03:21:44;99209.72;;;0.29;100.00
21203;BME280;10759;51.982;9.232;2022-11-21T03:24:12;99209.72;;;0.29;100.00
21203;BME280;10759;51.982;9.232;2022-11-21T03:26:40;99215.09;;;0.23;100.00
21203;BME280;10759;51.982;9.232;2022-11-21T03:29:08;99209.09;;;0.11;100.00
21203;BME280;10759;51.982;9.232;2022-11-21T03:31:37;99155.22;;;-0.30;100.00
21203;BME280;10759;51.982;9.232;2022-11-21T03:34:05;99218.91;;;0.03;100.00
21203;BME280;10759;51.982;9.232;2022-11-21T03:36:34;99170.09;;;-0.26;100.00
21203;BME280;10759;51.982;9.232;2022-11-21T03:39:03;99208.72;;;-0.25;100.00
21203;BME280;10759;51.982;9.232;2022-11-21T03:41:31;99223.72;;;-0.31;100.00
21203;BME280;10759;51.982;9.232;2022-11-21T03:44:02;99196.00;;;-0.61;100.00
21203;BME280;10759;51.982;9.232;2022-11-21T03:46:32;99227.56;;;-0.60;100.00
21203;BME280;10759;51.982;9.232;2022-11-21T03:49:03;99233.81;;;-0.72;100.00
21203;BME280;10759;51.982;9.232;2022-11-21T03:51:31;99244.38;;;-0.75;100.00
21203;BME280;10759;51.982;9.232;2022-11-21T03:53:59;99243.56;;;-0.78;100.00
21203;BME280;10759;51.982;9.232;2022-11-21T03:56:28;99252.34;;;-0.81;100.00
21203;BME280;10759;51.982;9.232;2022-11-21T03:58:56;99253.22;;;-0.80;100.00
21203;BME280;10759;51.982;9.232;2022-11-21T04:01:24;99263.78;;;-0.83;100.00
21203;BME280;10759;51.982;9.232;2022-11-21T04:03:54;99255.91;;;-0.90;100.00
21203;BME280;10759;51.982;9.232;2022-11-21T04:06:24;99245.44;;;-0.94;100.00
21203;BME280;10759;51.982;9.232;2022-11-21T04:08:52;99258.47;;;-0.82;100.00
21203;BME280;10759;51.982;9.232;2022-11-21T04:11:20;99265.63;;;-0.93;100.00
21203;BME280;10759;51.982;9.232;2022-11-21T04:13:50;99264.72;;;-0.92;100.00
21203;BME280;10759;51.982;9.232;2022-11-21T04:16:18;99272.56;;;-0.89;100.00
21203;BME280;10759;51.982;9.232;2022-11-21T04:18:46;99267.25;;;-0.83;100.00
21203;BME280;10759;51.982;9.232;2022-11-21T04:21:15;99269.97;;;-0.91;100.00
21203;BME280;10759;51.982;9.232;2022-11-21T04:23:44;99260.44;;;-1.02;100.00
21203;BME280;10759;51.982;9.232;2022-11-21T04:26:12;99251.75;;;-1.11;100.00
21203;BME280;10759;51.982;9.232;2022-11-21T04:28:40;99283.91;;;-0.82;100.00
21203;BME280;10759;51.982;9.232;2022-11-21T04:31:08;99163.53;;;-1.42;100.00
21203;BME280;10759;51.982;9.232;2022-11-21T04:33:37;99279.47;;;-0.76;100.00
21203;BME280;10759;51.982;9.232;2022-11-21T04:36:06;99274.19;;;-0.73;100.00
21203;BME280;10759;51.982;9.232;2022-11-21T04:38:35;99265.50;;;-0.81;100.00
21203;BME280;10759;51.982;9.232;2022-11-21T04:41:05;99275.97;;;-0.78;100.00
21203;BME280;10759;51.982;9.232;2022-11-21T04:43:33;99284.75;;;-0.76;100.00
21203;BME280;10759;51.982;9.232;2022-11-21T04:46:01;99224.44;;;-0.99;100.00
21203;BME280;10759;51.982;9.232;2022-11-21T04:48:29;99247.13;;;-0.87;100.00
21203;BME280;10759;51.982;9.232;2022-11-21T04:50:58;99282.84;;;-0.63;100.00
21203;BME280;10759;51.982;9.232;2022-11-21T04:53:26;99282.91;;;-0.68;100.00
21203;BME280;10759;51.982;9.232;2022-11-21T04:55:54;99262.72;;;-0.67;100.00
21203;BME280;10759;51.982;9.232;2022-11-21T04:58:24;99278.50;;;-0.66;100.00
21203;BME280;10759;51.982;9.232;2022-11-21T05:00:51;99258.50;;;-0.83;100.00
21203;BME280;10759;51.982;9.232;2022-11-21T05:03:20;99232.38;;;-1.03;100.00
21203;BME280;10759;51.982;9.232;2022-11-21T05:05:48;99275.06;;;-0.75;100.00
21203;BME280;10759;51.982;9.232;2022-11-21T05:08:16;99271.50;;;-0.68;100.00
21203;BME280;10759;51.982;9.232;2022-11-21T05:10:44;99216.63;;;-1.06;100.00
21203;BME280;10759;51.982;9.232;2022-11-21T05:13:30;99264.75;;;-0.97;100.00
21203;BME280;10759;51.982;9.232;2022-11-21T05:15:58;99243.00;;;-1.16;100.00
21203;BME280;10759;51.982;9.232;2022-11-21T05:18:27;99260.50;;;-1.12;100.00
21203;BME280;10759;51.982;9.232;2022-11-21T05:20:55;99272.69;;;-1.01;100.00
21203;BME280;10759;51.982;9.232;2022-11-21T05:23:23;99240.50;;;-1.30;100.00
21203;BME280;10759;51.982;9.232;2022-11-21T05:25:51;99276.25;;;-1.05;100.00
21203;BME280;10759;51.982;9.232;2022-11-21T05:28:19;99255.31;;;-1.18;100.00
21203;BME280;10759;51.982;9.232;2022-11-21T05:30:49;99260.63;;;-1.25;100.00
21203;BME280;10759;51.982;9.232;2022-11-21T05:33:17;99255.34;;;-1.22;100.00
21203;BME280;10759;51.982;9.232;2022-11-21T05:35:45;99266.66;;;-1.13;100.00
21203;BME280;10759;51.982;9.232;2022-11-21T05:38:14;99275.38;;;-1.09;100.00
21203;BME280;10759;51.982;9.232;2022-11-21T05:40:42;99268.41;;;-1.16;100.00
21203;BME280;10759;51.982;9.232;2022-11-21T05:43:10;99266.63;;;-1.11;100.00
21203;BME280;10759;51.982;9.232;2022-11-21T05:45:57;99263.94;;;-1.03;100.00
21203;BME280;10759;51.982;9.232;2022-11-21T05:48:25;99265.66;;;-0.98;100.00
21203;BME280;10759;51.982;9.232;2022-11-21T05:50:53;99269.09;;;-0.94;100.00
21203;BME280;10759;51.982;9.232;2022-11-21T05:53:21;99271.72;;;-0.91;100.00
21203;BME280;10759;51.982;9.232;2022-11-21T05:55:50;99225.53;;;-1.20;100.00
21203;BME280;10759;51.982;9.232;2022-11-21T05:58:18;99270.78;;;-0.85;100.00
21203;BME280;10759;51.982;9.232;2022-11-21T06:00:46;99228.97;;;-1.13;100.00
21203;BME280;10759;51.982;9.232;2022-11-21T06:03:15;99279.53;;;-0.80;100.00
21203;BME280;10759;51.982;9.232;2022-11-21T06:06:01;99242.75;;;-0.88;100.00
21203;BME280;10759;51.982;9.232;2022-11-21T06:08:31;99269.81;;;-0.74;100.00
21203;BME280;10759;51.982;9.232;2022-11-21T06:11:00;99240.09;;;-0.83;100.00
21203;BME280;10759;51.982;9.232;2022-11-21T06:13:28;99288.03;;;-0.55;100.00
21203;BME280;10759;51.982;9.232;2022-11-21T06:16:01;99192.25;;;-1.22;100.00
21203;BME280;10759;51.982;9.232;2022-11-21T06:18:33;99293.41;;;-0.68;100.00
21203;BME280;10759;51.982;9.232;2022-11-21T06:21:02;99292.50;;;-0.65;100.00
21203;BME280;10759;51.982;9.232;2022-11-21T06:23:31;99287.34;;;-0.73;100.00
21203;BME280;10759;51.982;9.232;2022-11-21T06:26:01;99257.72;;;-0.95;100.00
21203;BME280;10759;51.982;9.232;2022-11-21T06:28:31;99289.94;;;-0.70;100.00
21203;BME280;10759;51.982;9.232;2022-11-21T06:31:04;99230.59;;;-1.01;100.00
21203;BME280;10759;51.982;9.232;2022-11-21T06:33:34;99117.25;;;-1.63;100.00
21203;BME280;10759;51.982;9.232;2022-11-21T06:36:03;99296.84;;;-0.56;100.00
21203;BME280;10759;51.982;9.232;2022-11-21T06:38:31;99304.66;;;-0.50;100.00
21203;BME280;10759;51.982;9.232;2022-11-21T06:41:03;99304.59;;;-0.44;100.00
21203;BME280;10759;51.982;9.232;2022-11-21T06:43:31;99301.97;;;-0.44;100.00
21203;BME280;10759;51.982;9.232;2022-11-21T06:45:59;99304.59;;;-0.44;100.00
21203;BME280;10759;51.982;9.232;2022-11-21T06:48:29;99289.75;;;-0.51;100.00
21203;BME280;10759;51.982;9.232;2022-11-21T06:51:02;99301.97;;;-0.44;100.00
21203;BME280;10759;51.982;9.232;2022-11-21T06:53:31;99306.38;;;-0.46;100.00
21203;BME280;10759;51.982;9.232;2022-11-21T06:56:00;99293.25;;;-0.49;100.00
21203;BME280;10759;51.982;9.232;2022-11-21T06:58:28;99309.78;;;-0.38;100.00
21203;BME280;10759;51.982;9.232;2022-11-21T07:00:57;99306.38;;;-0.46;100.00
21203;BME280;10759;51.982;9.232;2022-11-21T07:03:25;99317.84;;;-0.53;100.00
21203;BME280;10759;51.982;9.232;2022-11-21T07:05:53;99277.66;;;-0.71;100.00
21203;BME280;10759;51.982;9.232;2022-11-21T07:08:26;99286.47;;;-0.73;100.00
21203;BME280;10759;51.982;9.232;2022-11-21T07:10:54;99311.59;;;-0.41;100.00
21203;BME280;10759;51.982;9.232;2022-11-21T07:13:43;99320.31;;;-0.38;100.00
21203;BME280;10759;51.982;9.232;2022-11-21T07:16:11;99245.34;;;-0.83;100.00
21203;BME280;10759;51.982;9.232;2022-11-21T07:18:41;99298.53;;;-0.52;100.00
21203;BME280;10759;51.982;9.232;2022-11-21T07:21:10;99328.09;;;-0.27;100.00
21203;BME280;10759;51.982;9.232;2022-11-21T07:23:40;99330.72;;;-0.24;100.00
21203;BME280;10759;51.982;9.232;2022-11-21T07:26:09;99312.47;;;-0.41;100.00
21203;BME280;10759;51.982;9.232;2022-11-21T07:28:37;99273.28;;;-0.69;100.00
21203;BME280;10759;51.982;9.232;2022-11-21T07:31:09;99253.19;;;-0.79;100.00
21203;BME280;10759;51.982;9.232;2022-11-21T07:33:40;99336.97;;;-0.34;100.00
21203;BME280;10759;51.982;9.232;2022-11-21T07:36:09;99328.34;;;-0.50;100.00
21203;BME280;10759;51.982;9.232;2022-11-21T07:38:37;99338.69;;;-0.35;100.00
21203;BME280;10759;51.982;9.232;2022-11-21T07:41:09;99286.31;;;-0.59;100.00
21203;BME280;10759;51.982;9.232;2022-11-21T07:43:37;99331.63;;;-0.30;100.00
21203;BME280;10759;51.982;9.232;2022-11-21T07:46:05;99325.72;;;-0.52;100.00
21203;BME280;10759;51.982;9.232;2022-11-21T07:48:33;99344.75;;;-0.25;100.00
21203;BME280;10759;51.982;9.232;2022-11-21T07:51:03;99329.00;;;-0.27;100.00
21203;BME280;10759;51.982;9.232;2022-11-21T07:53:31;99270.72;;;-0.78;100.00
21203;BME280;10759;51.982;9.232;2022-11-21T07:56:00;99329.25;;;-0.54;100.00
21203;BME280;10759;51.982;9.232;2022-11-21T07:58:29;99207.19;;;-1.27;100.00
21203;BME280;10759;51.982;9.232;2022-11-21T08:00:57;99343.06;;;-0.32;100.00
21203;BME280;10759;51.982;9.232;2022-11-21T08:03:25;99327.38;;;-0.41;100.00
21203;BME280;10759;51.982;9.232;2022-11-21T08:05:53;99334.28;;;-0.31;100.00
21203;BME280;10759;51.982;9.232;2022-11-21T08:08:21;99334.28;;;-0.31;100.00
21203;BME280;10759;51.982;9.232;2022-11-21T08:10:49;99304.59;;;-0.44;100.00
21203;BME280;10759;51.982;9.232;2022-11-21T08:13:18;99272.13;;;-0.43;100.00
21203;BME280;10759;51.982;9.232;2022-11-21T08:15:47;99333.06;;;-0.01;100.00
21203;BME280;10759;51.982;9.232;2022-11-21T08:18:16;99340.06;;;0.03;100.00
21203;BME280;10759;51.982;9.232;2022-11-21T08:20:45;99334.59;;;0.18;100.00
21203;BME280;10759;51.982;9.232;2022-11-21T08:23:14;99328.31;;;0.30;100.00
21203;BME280;10759;51.982;9.232;2022-11-21T08:25:42;99332.56;;;0.39;100.00
21203;BME280;10759;51.982;9.232;2022-11-21T08:28:11;99321.97;;;0.45;100.00
21203;BME280;10759;51.982;9.232;2022-11-21T08:30:39;99323.66;;;0.49;100.00
21203;BME280;10759;51.982;9.232;2022-11-21T08:33:09;99312.28;;;0.44;100.00
21203;BME280;10759;51.982;9.232;2022-11-21T08:35:38;99334.34;;;0.38;100.00
21203;BME280;10759;51.982;9.232;2022-11-21T08:38:05;99328.28;;;0.32;100.00
21203;BME280;10759;51.982;9.232;2022-11-21T08:40:34;99334.22;;;0.48;100.00
21203;BME280;10759;51.982;9.232;2022-11-21T08:43:03;99333.53;;;0.32;100.00
21203;BME280;10759;51.982;9.232;2022-11-21T08:45:32;99327.44;;;0.28;100.00
21203;BME280;10759;51.982;9.232;2022-11-21T08:48:01;99249.25;;;-0.38;100.00
21203;BME280;10759;51.982;9.232;2022-11-21T08:50:30;99329.31;;;0.20;100.00
21203;BME280;10759;51.982;9.232;2022-11-21T08:52:59;99331.91;;;0.23;100.00
21203;BME280;10759;51.982;9.232;2022-11-21T08:55:28;99335.50;;;0.16;100.00
21203;BME280;10759;51.982;9.232;2022-11-21T08:57:56;99341.50;;;0.29;100.00
21203;BME280;10759;51.982;9.232;2022-11-21T09:00:24;99305.88;;;0.00;100.00
21203;BME280;10759;51.982;9.232;2022-11-21T09:02:52;99328.38;;;0.24;100.00
21203;BME280;10759;51.982;9.232;2022-11-21T09:05:20;99324.00;;;0.23;100.00
21203;BME280;10759;51.982;9.232;2022-11-21T09:07:56;99288.72;;;0.33;100.00
21203;BME280;10759;51.982;9.232;2022-11-21T09:10:24;99320.81;;;0.63;100.00
21203;BME280;10759;51.982;9.232;2022-11-21T09:12:52;99318.38;;;0.49;100.00
21203;BME280;10759;51.982;9.232;2022-11-21T09:15:20;99265.56;;;-0.07;100.00
21203;BME280;10759;51.982;9.232;2022-11-21T09:18:06;99328.66;;;0.03;100.00
21203;BME280;10759;51.982;9.232;2022-11-21T09:20:38;99326.81;;;0.09;100.00
21203;BME280;10759;51.982;9.232;2022-11-21T09:23:09;99314.22;;;0.33;100.00
21203;BME280;10759;51.982;9.232;2022-11-21T09:25:38;99315.72;;;0.51;100.00
21203;BME280;10759;51.982;9.232;2022-11-21T09:28:08;99328.31;;;0.30;100.00
21203;BME280;10759;51.982;9.232;2022-11-21T09:30:37;99324.81;;;0.28;100.00
21203;BME280;10759;51.982;9.232;2022-11-21T09:33:06;99324.72;;;0.36;100.00
21203;BME280;10759;51.982;9.232;2022-11-21T09:35:35;99330.88;;;0.35;100.00
21203;BME280;10759;51.982;9.232;2022-11-21T09:38:03;99329.81;;;0.50;100.00
21203;BME280;10759;51.982;9.232;2022-11-21T09:40:34;99327.13;;;0.54;100.00
21203;BME280;10759;51.982;9.232;2022-11-21T09:43:24;99314.50;;;0.75;100.00
21203;BME280;10759;51.982;9.232;2022-11-21T09:45:58;99328.59;;;0.72;100.00
21203;BME280;10759;51.982;9.232;2022-11-21T09:48:31;99322.28;;;0.82;100.00
21203;BME280;10759;51.982;9.232;2022-11-21T09:51:03;99330.41;;;0.69;100.00
21203;BME280;10759;51.982;9.232;2022-11-21T09:53:36;99313.94;;;0.53;100.00
21203;BME280;10759;51.982;9.232;2022-11-21T09:56:10;99303.09;;;0.71;100.00
21203;BME280;10759;51.982;9.232;2022-11-21T09:58:41;99314.91;;;1.06;100.00
21203;BME280;10759;51.982;9.232;2022-11-21T10:01:11;99312.06;;;0.61;100.00
21203;BME280;10759;51.982;9.232;2022-11-21T10:03:42;99280.28;;;0.70;100.00
21203;BME280;10759;51.982;9.232;2022-11-21T10:06:17;99314.31;;;0.85;100.00
21203;BME280;10759;51.982;9.232;2022-11-21T10:08:54;99306.47;;;0.82;100.00
21203;BME280;10759;51.982;9.232;2022-11-21T10:11:34;99310.22;;;0.66;100.00
21203;BME280;10759;51.982;9.232;2022-11-21T10:14:37;99314.31;;;0.87;100.00
21203;BME280;10759;51.982;9.232;2022-11-21T10:17:19;99267.22;;;0.62;100.00
21203;BME280;10759;51.982;9.232;2022-11-21T10:20:00;99308.53;;;1.18;100.00
21203;BME280;10759;51.982;9.232;2022-11-21T10:22:42;99220.75;;;0.57;100.00
21203;BME280;10759;51.982;9.232;2022-11-21T10:25:20;99262.56;;;0.78;100.00
21203;BME280;10759;51.982;9.232;2022-11-21T10:27:57;99317.56;;;1.04;100.00
21203;BME280;10759;51.982;9.232;2022-11-21T10:30:27;99310.63;;;0.97;100.00
21203;BME280;10759;51.982;9.232;2022-11-21T10:32:57;99303.22;;;1.21;100.00
21203;BME280;10759;51.982;9.232;2022-11-21T10:35:28;99299.16;;;0.98;100.00
21203;BME280;10759;51.982;9.232;2022-11-21T10:37:59;99283.34;;;0.98;100.00
21203;BME280;10759;51.982;9.232;2022-11-21T10:40:33;99292.88;;;1.09;100.00
21203;BME280;10759;51.982;9.232;2022-11-21T10:43:06;99290.25;;;1.05;100.00
21203;BME280;10759;51.982;9.232;2022-11-21T10:45:53;99252.59;;;0.97;100.00
21203;BME280;10759;51.982;9.232;2022-11-21T10:48:22;99279.97;;;0.92;100.00
21203;BME280;10759;51.982;9.232;2022-11-21T10:51:02;99263.81;;;1.10;100.00
21203;BME280;10759;51.982;9.232;2022-11-21T10:53:32;99259.28;;;1.17;100.00
21203;BME280;10759;51.982;9.232;2022-11-21T10:56:19;99259.16;;;1.26;100.00
21203;BME280;10759;51.982;9.232;2022-11-21T10:58:50;99258.06;;;1.36;100.00
21203;BME280;10759;51.982;9.232;2022-11-21T11:01:27;99250.94;;;0.92;100.00
21203;BME280;10759;51.982;9.232;2022-11-21T11:04:19;99244.16;;;1.26;100.00
21203;BME280;10759;51.982;9.232;2022-11-21T11:07:19;99256.94;;;1.49;100.00
21203;BME280;10759;51.982;9.232;2022-11-21T11:09:49;99241.22;;;1.43;100.00
21203;BME280;10759;51.982;9.232;2022-11-21T11:12:25;99232.19;;;1.07;100.00
21203;BME280;10759;51.982;9.232;2022-11-21T11:15:20;99224.53;;;1.41;100.00
21203;BME280;10759;51.982;9.232;2022-11-21T11:17:51;99238.50;;;1.48;100.00
21203;BME280;10759;51.982;9.232;2022-11-21T11:20:43;99240.69;;;1.71;100.00
21203;BME280;10759;51.982;9.232;2022-11-21T11:23:23;99235.00;;;1.89;100.00
21203;BME280;10759;51.982;9.232;2022-11-21T11:25:52;99155.47;;;1.18;100.00
21203;BME280;10759;51.982;9.232;2022-11-21T11:28:21;99088.06;;;0.55;100.00
21203;BME280;10759;51.982;9.232;2022-11-21T11:30:53;99165.25;;;1.13;100.00
21203;BME280;10759;51.982;9.232;2022-11-21T11:33:29;99192.84;;;1.43;100.00
21203;BME280;10759;51.982;9.232;2022-11-21T11:36:06;99233.16;;;1.49;100.00
21203;BME280;10759;51.982;9.232;2022-11-21T11:38:36;99217.63;;;1.36;100.00
21203;BME280;10759;51.982;9.232;2022-11-21T11:41:13;99224.13;;;1.61;100.00
21203;BME280;10759;51.982;9.232;2022-11-21T11:43:52;99218.00;;;1.61;100.00
21203;BME280;10759;51.982;9.232;2022-11-21T11:46:50;99211.09;;;1.54;100.00
21203;BME280;10759;51.982;9.232;2022-11-21T11:49:48;99179.03;;;0.80;100.00
21203;BME280;10759;51.982;9.232;2022-11-21T11:52:42;99200.38;;;1.16;100.00
21203;BME280;10759;51.982;9.232;2022-11-21T11:55:17;99193.69;;;1.43;100.00
21203;BME280;10759;51.982;9.232;2022-11-21T11:57:48;99198.44;;;1.24;100.00
21203;BME280;10759;51.982;9.232;2022-11-21T12:00:26;99182.94;;;1.07;100.00
21203;BME280;10759;51.982;9.232;2022-11-21T12:03:04;99181.38;;;1.42;100.00
21203;BME280;10759;51.982;9.232;2022-11-21T12:05:38;99178.56;;;1.52;100.00
21203;BME280;10759;51.982;9.232;2022-11-21T12:08:15;99164.50;;;1.51;100.00
21203;BME280;10759;51.982;9.232;2022-11-21T12:11:14;99180.69;;;1.76;100.00
21203;BME280;10759;51.982;9.232;2022-11-21T12:14:09;99179.41;;;1.54;100.00
21203;BME280;10759;51.982;9.232;2022-11-21T12:16:39;99158.13;;;1.60;100.00
21203;BME280;10759;51.982;9.232;2022-11-21T12:19:13;99161.69;;;1.59;100.00
21203;BME280;10759;51.982;9.232;2022-11-21T12:21:42;99143.31;;;1.54;100.00
21203;BME280;10759;51.982;9.232;2022-11-21T12:24:11;99145.94;;;1.56;100.00
21203;BME280;10759;51.982;9.232;2022-11-21T12:26:48;99145.41;;;1.38;100.00
21203;BME280;10759;51.982;9.232;2022-11-21T12:29:34;99144.16;;;1.55;100.00
21203;BME280;10759;51.982;9.232;2022-11-21T12:32:16;99142.38;;;1.57;100.00
21203;BME280;10759;51.982;9.232;2022-11-21T12:35:07;99140.84;;;1.45;100.00
21203;BME280;10759;51.982;9.232;2022-11-21T12:37:47;99056.50;;;0.97;100.00
21203;BME280;10759;51.982;9.232;2022-11-21T12:40:33;99109.16;;;1.46;100.00
21203;BME280;10759;51.982;9.232;2022-11-21T12:43:18;99124.03;;;1.50;100.00
21203;BME280;10759;51.982;9.232;2022-11-21T12:45:51;99119.94;;;1.36;100.00
21203;BME280;10759;51.982;9.232;2022-11-21T12:48:47;99123.34;;;1.41;100.00
21203;BME280;10759;51.982;9.232;2022-11-21T12:51:47;99130.38;;;1.42;100.00
21203;BME280;10759;51.982;9.232;2022-11-21T12:54:51;99115.47;;;1.38;100.00
21203;BME280;10759;51.982;9.232;2022-11-21T12:57:28;99052.34;;;0.85;100.00
21203;BME280;10759;51.982;9.232;2022-11-21T13:00:05;99114.59;;;1.37;100.00
21203;BME280;10759;51.982;9.232;2022-11-21T13:02:50;99081.56;;;1.18;100.00
21203;BME280;10759;51.982;9.232;2022-11-21T13:05:26;99098.44;;;1.53;100.00
21203;BME280;10759;51.982;9.232;2022-11-21T13:08:01;99070.22;;;1.16;100.00
21203;BME280;10759;51.982;9.232;2022-11-21T13:10:30;99080.78;;;1.14;100.00
21203;BME280;10759;51.982;9.232;2022-11-21T13:13:03;99078.06;;;1.19;100.00
21203;BME280;10759;51.982;9.232;2022-11-21T13:15:40;99084.09;;;1.24;100.00
21203;BME280;10759;51.982;9.232;2022-11-21T13:18:16;99078.50;;;1.38;100.00
21203;BME280;10759;51.982;9.232;2022-11-21T13:20:47;99070.00;;;1.25;100.00